createdAt,value
2018-06-04T00:04:57.482Z,70.80
2018-06-04T00:09:59.678Z,71.30
2018-06-04T00:15:01.863Z,71.70
2018-06-04T00:20:04.045Z,73.30
2018-06-04T00:25:06.268Z,73.70
2018-06-04T00:30:08.397Z,73.90
2018-06-04T00:35:10.518Z,75.00
2018-06-04T00:40:12.643Z,74.70
2018-06-04T00:45:14.774Z,75.10
2018-06-04T00:50:16.907Z,75.20
2018-06-04T00:55:19.053Z,76.40
2018-06-04T01:00:21.222Z,80.20
2018-06-04T01:05:23.362Z,85.60
2018-06-04T01:10:25.541Z,86.70
2018-06-04T01:15:27.695Z,90.30
2018-06-04T01:20:29.879Z,90.10
2018-06-04T01:25:32.035Z,92.80
2018-06-04T01:30:34.174Z,94.40
2018-06-04T01:35:36.331Z,94.20
2018-06-04T01:40:38.478Z,97.20
2018-06-04T01:45:40.782Z,99.70
2018-06-04T01:50:42.939Z,97.20
2018-06-04T01:55:45.119Z,97.20
2018-06-04T02:00:47.275Z,94.50
2018-06-04T02:05:49.439Z,97.00
2018-06-04T02:10:51.601Z,94.90
2018-06-04T02:15:53.765Z,95.00
2018-06-04T02:20:55.958Z,99.90
2018-06-04T02:25:58.114Z,95.60
2018-06-04T02:31:00.261Z,97.40
2018-06-04T02:36:02.386Z,99.90
2018-06-04T02:41:04.591Z,99.00
2018-06-04T02:46:06.734Z,99.90
2018-06-04T02:51:08.868Z,98.30
2018-06-04T02:56:11.012Z,99.20
2018-06-04T03:01:13.156Z,99.90
2018-06-04T03:06:15.309Z,98.80
2018-06-04T03:11:17.817Z,99.90
2018-06-04T03:16:19.954Z,99.90
2018-06-04T03:21:22.084Z,99.90
2018-06-04T03:26:24.222Z,99.90
2018-06-04T03:31:26.467Z,99.90
2018-06-04T03:36:28.616Z,99.90
2018-06-04T03:41:30.786Z,99.90
2018-06-04T03:46:32.948Z,99.90
2018-06-04T03:51:35.117Z,99.90
2018-06-04T03:56:37.277Z,99.90
2018-06-04T04:01:39.450Z,99.90
2018-06-04T04:06:41.723Z,99.90
2018-06-04T04:11:43.959Z,99.10
2018-06-04T04:16:46.469Z,99.90
2018-06-04T04:21:48.896Z,98.20
2018-06-04T04:26:51.323Z,97.70
2018-06-04T04:31:53.447Z,99.90
2018-06-04T04:36:55.570Z,96.40
2018-06-04T04:41:57.791Z,99.90
2018-06-04T04:47:06.746Z,94.90
2018-06-04T04:52:09.785Z,94.30
2018-06-04T04:57:11.934Z,90.40
2018-06-04T05:02:14.074Z,84.90
2018-06-04T05:07:16.354Z,82.20
2018-06-04T05:12:18.501Z,81.30
2018-06-04T05:17:20.627Z,80.80
2018-06-04T05:22:22.765Z,80.30
2018-06-04T05:27:24.910Z,78.40
2018-06-04T05:32:27.072Z,78.50
2018-06-04T05:37:29.199Z,76.20
2018-06-04T05:42:31.355Z,72.60
2018-06-04T05:47:33.804Z,72.80
2018-06-04T05:52:35.960Z,71.90
2018-06-04T05:57:38.099Z,71.00
2018-06-04T06:02:40.268Z,69.30
2018-06-04T06:07:42.406Z,67.50
2018-06-04T06:12:44.537Z,66.10
2018-06-04T06:17:46.668Z,69.00
2018-06-04T06:22:48.802Z,66.90
2018-06-04T06:27:50.946Z,67.50
2018-06-04T06:32:53.168Z,64.70
2018-06-04T06:37:55.339Z,63.50
2018-06-04T06:42:57.518Z,60.40
2018-06-04T06:47:59.689Z,60.10
2018-06-04T06:53:01.841Z,58.60
2018-06-04T06:58:04.018Z,56.60
2018-06-04T07:03:06.161Z,57.00
2018-06-04T07:08:08.406Z,57.40
2018-06-04T07:13:10.565Z,56.30
2018-06-04T07:18:12.725Z,55.30
2018-06-04T07:23:14.911Z,55.40
2018-06-04T07:28:17.077Z,54.20
2018-06-04T07:33:19.227Z,55.00
2018-06-04T07:38:21.366Z,53.70
2018-06-04T07:43:23.522Z,53.50
2018-06-04T07:48:25.681Z,54.30
2018-06-04T07:53:27.856Z,53.00
2018-06-04T07:58:29.977Z,52.70
2018-06-04T08:03:32.142Z,52.70
2018-06-04T08:08:34.303Z,53.40
2018-06-04T08:13:36.478Z,55.50
2018-06-04T08:18:38.621Z,55.60
2018-06-04T08:23:40.857Z,51.80
2018-06-04T08:28:43.103Z,50.20
2018-06-04T08:33:45.286Z,50.20
2018-06-04T08:38:47.434Z,51.40
2018-06-04T08:43:49.579Z,51.30
2018-06-04T08:48:51.722Z,50.60
2018-06-04T08:53:53.865Z,50.90
2018-06-04T08:58:56.005Z,51.10
2018-06-04T09:03:58.179Z,50.80
2018-06-04T09:09:00.341Z,48.70
2018-06-04T09:14:02.578Z,48.40
2018-06-04T09:19:04.854Z,50.80
2018-06-04T09:24:07.037Z,49.80
2018-06-04T09:29:09.182Z,48.00
2018-06-04T09:34:11.331Z,45.20
2018-06-04T09:39:13.486Z,45.50
2018-06-04T09:44:15.654Z,47.10
2018-06-04T09:49:17.802Z,44.90
2018-06-04T09:54:19.946Z,43.80
2018-06-04T09:59:22.071Z,43.50
2018-06-04T10:04:24.185Z,43.20
2018-06-04T10:09:26.322Z,42.10
2018-06-04T10:14:28.525Z,43.90
2018-06-04T10:19:30.691Z,43.10
2018-06-04T10:24:32.838Z,41.20
2018-06-04T10:29:35.010Z,43.20
2018-06-04T10:34:37.193Z,39.50
2018-06-04T10:39:39.354Z,39.90
2018-06-04T10:44:41.651Z,38.40
2018-06-04T10:49:43.823Z,38.80
2018-06-04T10:54:45.986Z,36.80
2018-06-04T10:59:48.161Z,37.10
2018-06-04T11:04:50.324Z,38.20
2018-06-04T11:09:52.502Z,35.60
2018-06-04T11:14:54.655Z,38.20
2018-06-04T11:19:56.835Z,36.00
2018-06-04T11:24:59.025Z,37.70
2018-06-04T11:30:01.205Z,36.20
2018-06-04T11:35:03.385Z,36.40
2018-06-04T11:40:05.549Z,35.70
2018-06-04T11:45:07.694Z,35.80
2018-06-04T11:50:09.862Z,34.50
2018-06-04T11:55:12.023Z,34.30
2018-06-04T12:00:14.190Z,30.10
2018-06-04T12:05:16.319Z,31.90
2018-06-04T12:10:18.466Z,32.50
2018-06-04T12:15:20.597Z,32.70
2018-06-04T12:20:22.745Z,30.50
2018-06-04T12:25:24.856Z,32.20
2018-06-04T12:30:27.038Z,33.40
2018-06-04T12:35:29.193Z,30.20
2018-06-04T12:40:31.427Z,32.20
2018-06-04T12:45:33.612Z,31.30
2018-06-04T12:50:35.785Z,32.00
2018-06-04T12:55:37.937Z,32.30
2018-06-04T13:00:40.104Z,32.60
2018-06-04T13:05:42.441Z,31.30
2018-06-04T13:10:44.614Z,31.40
2018-06-04T13:15:46.810Z,30.60
2018-06-04T13:20:48.966Z,30.80
2018-06-04T13:25:51.446Z,33.50
2018-06-04T13:30:53.613Z,34.10
2018-06-04T13:35:55.802Z,34.10
2018-06-04T13:40:57.988Z,33.10
2018-06-04T13:46:00.174Z,31.60
2018-06-04T13:51:02.342Z,31.80
2018-06-04T13:56:04.540Z,32.30
2018-06-04T14:01:06.761Z,31.80
2018-06-04T14:06:08.945Z,33.60
2018-06-04T14:11:11.166Z,33.30
2018-06-04T14:16:13.320Z,32.40
2018-06-04T14:21:15.489Z,32.70
2018-06-04T14:26:17.670Z,31.60
2018-06-04T14:31:19.839Z,31.90
2018-06-04T14:36:22.002Z,32.30
2018-06-04T14:41:24.154Z,32.40
2018-06-04T14:46:26.297Z,32.60
2018-06-04T14:51:28.442Z,33.00
2018-06-04T14:56:30.645Z,32.20
2018-06-04T15:01:32.770Z,32.90
2018-06-04T15:06:34.939Z,32.70
2018-06-04T15:11:37.090Z,33.50
2018-06-04T15:16:39.253Z,32.80
2018-06-04T15:21:41.370Z,32.60
2018-06-04T15:26:43.595Z,32.40
2018-06-04T15:31:45.723Z,32.80
2018-06-04T15:36:47.969Z,32.50
2018-06-04T15:41:50.297Z,33.20
2018-06-04T15:46:52.548Z,33.70
2018-06-04T15:51:54.886Z,34.30
2018-06-04T15:56:57.043Z,35.10
2018-06-04T16:01:59.214Z,35.60
2018-06-04T16:07:01.639Z,35.00
2018-06-04T16:12:03.819Z,34.80
2018-06-04T16:17:05.965Z,33.90
2018-06-04T16:22:08.213Z,34.20
2018-06-04T16:27:10.369Z,34.80
2018-06-04T16:32:12.550Z,32.70
2018-06-04T16:37:14.794Z,31.30
2018-06-04T16:42:16.937Z,31.90
2018-06-04T16:47:19.426Z,31.60
2018-06-04T16:52:21.613Z,32.40
2018-06-04T16:57:23.793Z,33.00
2018-06-04T17:02:25.954Z,32.30
2018-06-04T17:07:28.125Z,30.80
2018-06-04T17:12:30.313Z,30.30
2018-06-04T17:17:32.471Z,31.50
2018-06-04T17:22:34.639Z,30.40
2018-06-04T17:27:36.801Z,30.20
2018-06-04T17:32:38.961Z,28.90
2018-06-04T17:37:41.171Z,30.30
2018-06-04T17:42:43.476Z,30.70
2018-06-04T17:47:45.722Z,31.30
2018-06-04T17:52:47.906Z,31.00
2018-06-04T17:57:50.099Z,31.60
2018-06-04T18:02:52.253Z,32.20
2018-06-04T18:07:54.402Z,33.30
2018-06-04T18:12:56.572Z,34.10
2018-06-04T18:17:58.737Z,34.40
2018-06-04T18:23:00.908Z,35.20
2018-06-04T18:28:03.166Z,35.40
2018-06-04T18:33:05.345Z,36.20
2018-06-04T18:38:07.511Z,36.80
2018-06-04T18:43:09.698Z,36.60
2018-06-04T18:48:11.953Z,37.40
2018-06-04T18:53:14.134Z,38.10
2018-06-04T18:58:16.309Z,38.90
2018-06-04T19:03:18.477Z,39.50
2018-06-04T19:08:20.641Z,40.20
2018-06-04T19:13:22.844Z,41.10
2018-06-04T19:18:25.012Z,41.70
2018-06-04T19:23:27.163Z,42.20
2018-06-04T19:28:30.172Z,42.70
2018-06-04T19:33:32.425Z,43.50
2018-06-04T19:38:34.709Z,43.90
2018-06-04T19:43:36.913Z,44.60
2018-06-04T19:48:39.568Z,46.10
2018-06-04T19:53:41.789Z,45.20
2018-06-04T19:58:44.166Z,45.80
2018-06-04T20:03:46.337Z,46.40
2018-06-04T20:08:48.522Z,46.90
2018-06-04T20:13:50.709Z,47.40
2018-06-04T20:18:52.918Z,47.80
2018-06-04T20:23:55.114Z,47.90
2018-06-04T20:28:57.272Z,48.10
2018-06-04T20:33:59.610Z,48.60
2018-06-04T20:39:01.823Z,49.00
2018-06-04T20:44:04.325Z,50.00
2018-06-04T20:49:06.466Z,50.70
2018-06-04T20:54:08.651Z,51.40
2018-06-04T20:59:10.834Z,52.00
2018-06-04T21:04:13.005Z,52.20
2018-06-04T21:09:15.189Z,53.40
2018-06-04T21:14:17.410Z,53.60
2018-06-04T21:19:19.598Z,53.80
2018-06-04T21:24:21.765Z,53.70
2018-06-04T21:29:23.900Z,53.40
2018-06-04T21:34:26.055Z,53.60
2018-06-04T21:39:28.186Z,53.90
2018-06-04T21:44:30.342Z,54.00
2018-06-04T21:49:32.503Z,54.30
2018-06-04T21:54:34.810Z,54.50
2018-06-04T21:59:36.989Z,54.90
2018-06-04T22:04:39.122Z,55.10
2018-06-04T22:09:41.285Z,55.60
2018-06-04T22:14:43.897Z,55.80
2018-06-04T22:19:46.062Z,56.30
2018-06-04T22:24:48.251Z,56.80
2018-06-04T22:29:50.421Z,57.30
2018-06-04T22:34:52.610Z,57.70
2018-06-04T22:39:54.785Z,58.00
2018-06-04T22:44:56.956Z,58.90
2018-06-04T22:49:59.150Z,60.60
2018-06-04T22:55:01.313Z,61.10
2018-06-04T23:00:03.517Z,62.90
2018-06-04T23:05:05.704Z,62.40
2018-06-04T23:10:07.893Z,63.60
2018-06-04T23:15:10.051Z,64.00
2018-06-04T23:20:12.243Z,64.90
2018-06-04T23:25:14.489Z,65.20
2018-06-04T23:30:16.666Z,66.20
2018-06-04T23:35:18.878Z,68.10
2018-06-04T23:40:21.042Z,67.70
2018-06-04T23:45:23.210Z,67.70
2018-06-04T23:55:34.246Z,68.90
